Hines Creek, Canada
Current Conditions -  °F | °C
As of 8:00 PM on Friday 21 Nov 2014 (Local Time) from CYPE Reporting Station
Light Snow Light Snow  
Wind Chill: 10°   Ceiling: 3000
Heat Index: 23°   Visibility: 10mi
Dew Point: 21°   Wind: 15mph
Humidity: 93%   Direction: 30°NNE
Pressure: 29.38"   Gusts: NA
Location:  56.23°N, 118.6°W
Report Text: CYPE 220300Z 03013KT 10SM -SN SCT010 OVC030 M05/M06 A2938 RMK SC4SC4 SLP982
Loading
Personal Weather Stations






























Interactive Weather Map New forecast layout! Learn more

10-Day Weather Forecast

Advertisements
Track Severe Weather on mobile